createdAt,value
2022-10-01T13:37:30.797Z,96203.28
2022-10-01T13:39:58.772Z,96195.69
2022-10-01T13:42:29.720Z,96203.47
2022-10-01T13:45:05.078Z,96206.94
2022-10-01T13:47:34.924Z,96207.00
2022-10-01T13:50:05.486Z,96225.81
2022-10-01T13:52:33.519Z,96211.31
2022-10-01T13:55:02.047Z,96212.16
2022-10-01T13:57:37.427Z,96220.78
2022-10-01T14:00:12.875Z,96219.88
2022-10-01T14:02:42.456Z,96221.38
2022-10-01T14:05:17.804Z,96231.69
2022-10-01T14:07:48.213Z,96224.03
2022-10-01T14:10:16.030Z,96231.75
2022-10-01T14:13:05.210Z,96233.50
2022-10-01T14:15:59.995Z,96231.88
2022-10-01T14:18:33.601Z,96213.13
2022-10-01T14:21:29.341Z,96219.16
2022-10-01T14:24:11.406Z,96226.00
2022-10-01T14:26:59.715Z,96231.13
2022-10-01T14:29:34.846Z,96234.59
2022-10-01T14:32:16.522Z,96229.47
2022-10-01T14:35:12.233Z,96232.88
2022-10-01T14:37:40.316Z,96216.63
2022-10-01T14:40:14.974Z,96216.69
2022-10-01T14:42:41.457Z,96223.53
2022-10-01T14:45:18.431Z,96215.84
2022-10-01T14:47:44.991Z,96219.25
2022-10-01T14:50:19.432Z,96210.69
2022-10-01T14:52:49.373Z,96214.94
2022-10-01T14:55:20.728Z,96215.81
2022-10-01T14:57:50.825Z,96218.38
2022-10-01T15:00:22.615Z,96224.34
2022-10-01T15:02:51.992Z,96214.94
2022-10-01T15:05:23.292Z,96209.81
2022-10-01T15:07:49.777Z,96217.47
2022-10-01T15:10:19.199Z,96201.25
2022-10-01T15:12:47.127Z,96203.78
2022-10-01T15:15:24.571Z,96196.94
2022-10-01T15:17:52.267Z,96197.78
2022-10-01T15:20:18.925Z,96202.03
2022-10-01T15:22:49.085Z,96201.16
2022-10-01T15:25:20.768Z,96200.31
2022-10-01T15:27:48.892Z,96210.56
2022-10-01T15:30:18.275Z,96201.16
2022-10-01T15:32:47.638Z,96201.16
2022-10-01T15:35:19.501Z,96215.66
2022-10-01T15:37:50.222Z,96207.97
2022-10-01T15:40:25.424Z,96216.47
2022-10-01T15:43:13.011Z,96220.75
2022-10-01T15:45:40.584Z,96205.34
2022-10-01T15:48:27.125Z,96220.75
2022-10-01T15:51:00.727Z,96215.59
2022-10-01T15:53:28.563Z,96222.41
2022-10-01T15:55:58.020Z,96213.00
2022-10-01T15:58:35.026Z,96214.72
2022-10-01T16:01:12.254Z,96222.41
2022-10-01T16:03:41.586Z,96215.56
2022-10-01T16:06:36.767Z,96204.50
2022-10-01T16:09:03.122Z,96213.06
2022-10-01T16:11:32.935Z,96218.22
2022-10-01T16:14:22.401Z,96222.47
2022-10-01T16:16:50.504Z,96223.34
2022-10-01T16:19:30.387Z,96230.16
2022-10-01T16:22:24.630Z,96233.56
2022-10-01T16:24:53.012Z,96232.75
2022-10-01T16:27:45.419Z,96244.69
2022-10-01T16:30:20.347Z,96251.56
2022-10-01T16:32:47.443Z,96253.25
2022-10-01T16:35:23.053Z,96257.50
2022-10-01T16:37:51.806Z,96262.63
2022-10-01T16:40:20.901Z,96261.78
2022-10-01T16:42:50.451Z,96260.91
2022-10-01T16:45:19.606Z,96259.19
2022-10-01T16:47:46.662Z,96268.59
2022-10-01T16:50:16.045Z,96266.06
2022-10-01T16:52:42.792Z,96283.97
2022-10-01T16:55:25.895Z,96276.28
2022-10-01T16:57:54.455Z,96283.97
2022-10-01T17:00:23.798Z,96280.59
2022-10-01T17:02:50.345Z,96296.00
2022-10-01T17:05:23.335Z,96293.38
2022-10-01T17:07:49.797Z,96289.94
2022-10-01T17:10:19.121Z,96293.38
2022-10-01T17:12:47.594Z,96296.78
2022-10-01T17:15:17.220Z,96297.63
2022-10-01T17:17:45.185Z,96302.75
2022-10-01T17:20:12.408Z,96301.00
2022-10-01T17:22:39.208Z,96310.41
2022-10-01T17:25:07.233Z,96312.16
2022-10-01T17:27:33.615Z,96316.44
2022-10-01T17:29:59.953Z,96311.34
2022-10-01T17:32:26.277Z,96316.41
2022-10-01T17:34:54.321Z,96323.28
2022-10-01T17:37:23.746Z,96322.44
2022-10-01T17:39:50.168Z,96325.84
2022-10-01T17:42:17.978Z,96324.16
2022-10-01T17:44:45.205Z,96330.13
2022-10-01T17:47:12.261Z,96332.72
2022-10-01T17:49:39.631Z,96336.19
2022-10-01T17:52:06.978Z,96355.00
2022-10-01T17:54:35.570Z,96362.69
2022-10-01T17:57:02.344Z,96358.41
2022-10-01T17:59:29.905Z,96361.81
2022-10-01T18:01:57.158Z,96367.78
2022-10-01T18:04:25.755Z,96361.81
2022-10-01T18:06:57.954Z,96370.34
2022-10-01T18:09:26.072Z,96372.91
2022-10-01T18:11:52.420Z,96380.59
2022-10-01T18:14:18.832Z,96386.56
2022-10-01T18:16:45.279Z,96385.75
2022-10-01T18:19:52.332Z,96393.41
2022-10-01T18:21:59.624Z,96386.56
2022-10-01T18:24:26.227Z,96392.56
2022-10-01T18:26:52.760Z,96399.41
2022-10-01T18:29:26.732Z,96392.56
2022-10-01T18:31:58.835Z,96389.16
2022-10-01T18:34:29.192Z,96393.41
2022-10-01T18:37:01.424Z,96392.56
2022-10-01T18:39:43.078Z,96372.13
2022-10-01T18:42:21.120Z,96396.81
2022-10-01T18:44:55.163Z,96389.13
2022-10-01T18:48:06.629Z,96397.69
2022-10-01T18:50:43.218Z,96405.41
2022-10-01T18:53:21.511Z,96407.13
2022-10-01T18:55:55.191Z,96398.56
2022-10-01T18:58:39.228Z,96402.00
2022-10-01T19:01:20.979Z,96414.84
2022-10-01T19:03:47.419Z,96410.59
2022-10-01T19:06:47.657Z,96413.16
2022-10-01T19:09:31.150Z,96413.97
2022-10-01T19:12:03.572Z,96416.53
2022-10-01T19:14:50.988Z,96416.56
2022-10-01T19:17:31.137Z,96423.44
2022-10-01T19:20:16.500Z,96415.75
2022-10-01T19:22:50.156Z,96425.97
2022-10-01T19:25:26.879Z,96420.88
2022-10-01T19:28:08.231Z,96437.97
2022-10-01T19:31:02.443Z,96441.41
2022-10-01T19:33:32.331Z,96442.25
2022-10-01T19:36:00.434Z,96443.09
2022-10-01T19:38:36.616Z,96453.38
2022-10-01T19:41:14.710Z,96461.06
2022-10-01T19:43:44.616Z,96456.78
2022-10-01T19:46:16.502Z,96468.72
2022-10-01T19:48:51.902Z,96475.59
2022-10-01T19:51:27.343Z,96493.53
2022-10-01T19:54:01.505Z,96493.53
2022-10-01T19:56:34.464Z,96491.81
2022-10-01T19:59:07.680Z,96493.53
2022-10-01T20:01:41.443Z,96495.25
2022-10-01T20:04:39.467Z,96496.94
2022-10-01T20:07:20.303Z,96506.34
2022-10-01T20:10:20.540Z,96512.31
2022-10-01T20:13:21.219Z,96514.91
2022-10-01T20:16:25.357Z,96520.00
2022-10-01T20:19:13.785Z,96527.72
2022-10-01T20:22:31.036Z,96526.00
2022-10-01T20:25:01.593Z,96537.13
2022-10-01T20:28:06.845Z,96542.25
2022-10-01T20:30:44.738Z,96550.81
2022-10-01T20:33:35.660Z,96548.22
2022-10-01T20:36:08.180Z,96558.47
2022-10-01T20:38:43.650Z,96564.47
2022-10-01T20:41:15.447Z,96570.47
2022-10-01T20:43:49.227Z,96566.19
2022-10-01T20:46:38.035Z,96576.44
2022-10-01T20:49:13.857Z,96581.56
2022-10-01T20:51:47.944Z,96588.41
2022-10-01T20:54:24.739Z,96584.13
2022-10-01T20:57:00.148Z,96596.09
2022-10-01T20:59:36.614Z,96601.25
2022-10-01T21:02:22.566Z,96613.22
2022-10-01T21:04:56.304Z,96620.03
2022-10-01T21:07:37.888Z,96620.88
2022-10-01T21:10:31.833Z,96628.59
2022-10-01T21:13:07.642Z,96624.28
2022-10-01T21:15:47.326Z,96628.59
2022-10-01T21:18:35.080Z,96629.44
2022-10-01T21:21:15.848Z,96633.69
2022-10-01T21:23:56.132Z,96634.59
2022-10-01T21:26:47.117Z,96637.13
2022-10-01T21:29:24.292Z,96641.38
2022-10-01T21:32:15.286Z,96652.53
2022-10-01T21:34:55.053Z,96640.56
2022-10-01T21:37:30.780Z,96641.38
2022-10-01T21:40:25.175Z,96647.38
2022-10-01T21:43:10.581Z,96654.22
2022-10-01T21:46:04.399Z,96643.97
2022-10-01T21:48:36.864Z,96649.94
2022-10-01T21:51:26.234Z,96655.06
2022-10-01T21:54:18.068Z,96658.50
2022-10-01T21:57:16.490Z,96659.34
2022-10-01T22:00:21.359Z,96667.03
2022-10-01T22:03:03.144Z,96679.03
2022-10-01T22:05:50.868Z,96680.75
2022-10-01T22:08:40.831Z,96679.88
2022-10-01T22:11:16.984Z,96691.00
2022-10-01T22:14:02.730Z,96682.44
2022-10-01T22:16:38.715Z,96690.16
2022-10-01T22:19:12.533Z,96694.41
2022-10-01T22:21:48.567Z,96702.97
2022-10-01T22:24:23.088Z,96708.13
2022-10-01T22:26:56.311Z,96707.25
2022-10-01T22:29:27.473Z,96708.97
2022-10-01T22:31:58.133Z,96707.28
2022-10-01T22:34:31.183Z,96717.53
2022-10-01T22:37:02.120Z,96715.81
2022-10-01T22:39:37.321Z,96726.97
2022-10-01T22:42:28.803Z,96737.22
2022-10-01T22:44:56.344Z,96741.50
2022-10-01T22:47:53.553Z,96747.47
2022-10-01T22:50:48.883Z,96758.59
2022-10-01T22:53:34.053Z,96766.28
2022-10-01T22:56:00.411Z,96765.41
2022-10-01T22:58:49.059Z,96766.28
2022-10-01T23:01:36.476Z,96768.81
2022-10-01T23:04:15.006Z,96781.69
2022-10-01T23:06:46.996Z,96779.94
2022-10-01T23:09:32.139Z,96789.38
2022-10-01T23:12:20.581Z,96785.97
2022-10-01T23:15:00.580Z,96792.78
2022-10-01T23:17:35.155Z,96792.78
2022-10-01T23:20:19.662Z,96791.09
2022-10-01T23:23:06.693Z,96792.78
2022-10-01T23:25:43.965Z,96787.66
2022-10-01T23:28:18.055Z,96792.78
2022-10-01T23:30:44.411Z,96797.94
2022-10-01T23:33:42.203Z,96807.31
2022-10-01T23:36:25.078Z,96811.63
2022-10-01T23:39:07.169Z,96811.63
2022-10-01T23:41:50.939Z,96816.78
2022-10-01T23:44:32.224Z,96817.63
2022-10-01T23:47:04.200Z,96819.31
2022-10-01T23:49:36.563Z,96815.06
2022-10-01T23:52:12.981Z,96824.47
2022-10-01T23:54:51.652Z,96828.78
2022-10-01T23:57:28.112Z,96830.50
